sensor_id;sensor_type;location;lat;lon;timestamp;pressure;altitude;pressure_sealevel;temperature;humidity
76378;BME280;65200;49.500;8.654;2023-02-15T00:01:27;102066.22;;;0.49;92.93
76378;BME280;65200;49.500;8.654;2023-02-15T00:03:54;102066.47;;;0.45;92.66
76378;BME280;65200;49.500;8.654;2023-02-15T00:06:20;102058.56;;;0.45;93.00
76378;BME280;65200;49.500;8.654;2023-02-15T00:08:47;102059.84;;;0.53;91.89
76378;BME280;65200;49.500;8.654;2023-02-15T00:11:15;102062.06;;;0.45;92.39
76378;BME280;65200;49.500;8.654;2023-02-15T00:14:03;102058.16;;;0.37;92.25
76378;BME280;65200;49.500;8.654;2023-02-15T00:16:31;102051.00;;;0.39;92.78
76378;BME280;65200;49.500;8.654;2023-02-15T00:18:57;102050.84;;;0.42;92.53
76378;BME280;65200;49.500;8.654;2023-02-15T00:21:27;102053.66;;;0.39;92.83
76378;BME280;65200;49.500;8.654;2023-02-15T00:23:53;102049.88;;;0.43;93.70
76378;BME280;65200;49.500;8.654;2023-02-15T00:26:20;102056.78;;;0.45;92.88
76378;BME280;65200;49.500;8.654;2023-02-15T00:28:46;102048.88;;;0.45;93.37
76378;BME280;65200;49.500;8.654;2023-02-15T00:31:13;102042.94;;;0.42;93.70
76378;BME280;65200;49.500;8.654;2023-02-15T00:33:40;102056.53;;;0.50;93.95
76378;BME280;65200;49.500;8.654;2023-02-15T00:36:08;102047.25;;;0.58;93.63
76378;BME280;65200;49.500;8.654;2023-02-15T00:38:35;102045.72;;;0.54;93.93
76378;BME280;65200;49.500;8.654;2023-02-15T00:41:04;102049.41;;;0.52;93.01
76378;BME280;65200;49.500;8.654;2023-02-15T00:43:32;102044.72;;;0.57;93.76
76378;BME280;65200;49.500;8.654;2023-02-15T00:46:00;102046.91;;;0.64;93.23
76378;BME280;65200;49.500;8.654;2023-02-15T00:48:27;102037.97;;;0.67;93.13
76378;BME280;65200;49.500;8.654;2023-02-15T00:50:56;102031.44;;;0.58;93.18
76378;BME280;65200;49.500;8.654;2023-02-15T00:53:24;102042.91;;;0.57;93.30
76378;BME280;65200;49.500;8.654;2023-02-15T00:55:51;102040.34;;;0.56;92.82
76378;BME280;65200;49.500;8.654;2023-02-15T00:58:17;102035.09;;;0.56;93.77
76378;BME280;65200;49.500;8.654;2023-02-15T01:00:45;102037.03;;;0.52;93.31
76378;BME280;65200;49.500;8.654;2023-02-15T01:03:13;102039.03;;;0.49;94.03
76378;BME280;65200;49.500;8.654;2023-02-15T01:05:40;102037.22;;;0.49;93.33
76378;BME280;65200;49.500;8.654;2023-02-15T01:08:08;102042.22;;;0.54;91.87
76378;BME280;65200;49.500;8.654;2023-02-15T01:10:35;102035.59;;;0.47;92.24
76378;BME280;65200;49.500;8.654;2023-02-15T01:13:02;102030.75;;;0.55;92.13
76378;BME280;65200;49.500;8.654;2023-02-15T01:15:29;102034.94;;;0.43;91.87
76378;BME280;65200;49.500;8.654;2023-02-15T01:17:55;102038.13;;;0.33;92.82
76378;BME280;65200;49.500;8.654;2023-02-15T01:20:24;102035.97;;;0.41;93.03
76378;BME280;65200;49.500;8.654;2023-02-15T01:22:51;102032.19;;;0.45;93.03
76378;BME280;65200;49.500;8.654;2023-02-15T01:25:21;102036.09;;;0.38;92.59
76378;BME280;65200;49.500;8.654;2023-02-15T01:27:48;102027.97;;;0.42;92.99
76378;BME280;65200;49.500;8.654;2023-02-15T01:30:15;102033.38;;;0.24;92.98
76378;BME280;65200;49.500;8.654;2023-02-15T01:32:42;102027.16;;;0.09;92.76
76378;BME280;65200;49.500;8.654;2023-02-15T01:35:09;102028.75;;;0.12;93.33
76378;BME280;65200;49.500;8.654;2023-02-15T01:37:36;102027.03;;;0.28;94.89
76378;BME280;65200;49.500;8.654;2023-02-15T01:40:03;102025.22;;;0.28;93.47
76378;BME280;65200;49.500;8.654;2023-02-15T01:42:31;102022.66;;;0.11;94.42
76378;BME280;65200;49.500;8.654;2023-02-15T01:45:00;102024.63;;;0.23;94.35
76378;BME280;65200;49.500;8.654;2023-02-15T01:47:30;102014.50;;;0.16;93.37
76378;BME280;65200;49.500;8.654;2023-02-15T01:50:03;102013.63;;;0.15;93.97
76378;BME280;65200;49.500;8.654;2023-02-15T01:52:34;102011.19;;;0.28;94.30
76378;BME280;65200;49.500;8.654;2023-02-15T01:55:03;102011.84;;;0.31;94.42
76378;BME280;65200;49.500;8.654;2023-02-15T01:57:31;102017.56;;;0.39;92.99
76378;BME280;65200;49.500;8.654;2023-02-15T02:00:00;102019.59;;;0.50;92.69
76378;BME280;65200;49.500;8.654;2023-02-15T02:02:28;102024.53;;;0.56;92.50
76378;BME280;65200;49.500;8.654;2023-02-15T02:04:58;102022.84;;;0.55;92.35
76378;BME280;65200;49.500;8.654;2023-02-15T02:07:29;102022.41;;;0.62;93.26
76378;BME280;65200;49.500;8.654;2023-02-15T02:09:57;102021.56;;;0.62;93.14
76378;BME280;65200;49.500;8.654;2023-02-15T02:12:25;102015.69;;;0.57;92.35
76378;BME280;65200;49.500;8.654;2023-02-15T02:14:53;102012.88;;;0.44;92.90
76378;BME280;65200;49.500;8.654;2023-02-15T02:17:28;102007.38;;;0.49;93.03
76378;BME280;65200;49.500;8.654;2023-02-15T02:20:25;102000.47;;;0.62;93.19
76378;BME280;65200;49.500;8.654;2023-02-15T02:23:05;101998.50;;;0.50;91.65
76378;BME280;65200;49.500;8.654;2023-02-15T02:25:57;102005.06;;;0.58;93.08
76378;BME280;65200;49.500;8.654;2023-02-15T02:28:33;102001.56;;;0.58;92.01
76378;BME280;65200;49.500;8.654;2023-02-15T02:31:19;101999.00;;;0.56;91.43
76378;BME280;65200;49.500;8.654;2023-02-15T02:34:00;101998.69;;;0.47;92.26
76378;BME280;65200;49.500;8.654;2023-02-15T02:36:35;101988.50;;;0.41;93.23
76378;BME280;65200;49.500;8.654;2023-02-15T02:39:13;101986.69;;;0.57;92.21
76378;BME280;65200;49.500;8.654;2023-02-15T02:41:50;101984.72;;;0.45;93.17
76378;BME280;65200;49.500;8.654;2023-02-15T02:44:25;101988.81;;;0.50;93.75
76378;BME280;65200;49.500;8.654;2023-02-15T02:46:58;101986.28;;;0.49;93.27
76378;BME280;65200;49.500;8.654;2023-02-15T02:49:32;101981.06;;;0.47;92.35
76378;BME280;65200;49.500;8.654;2023-02-15T02:52:00;101974.88;;;0.48;92.77
76378;BME280;65200;49.500;8.654;2023-02-15T02:54:27;101975.97;;;0.44;92.79
76378;BME280;65200;49.500;8.654;2023-02-15T02:56:56;101969.75;;;0.45;93.00
76378;BME280;65200;49.500;8.654;2023-02-15T02:59:27;101977.25;;;0.37;93.13
76378;BME280;65200;49.500;8.654;2023-02-15T03:01:58;101971.03;;;0.38;94.19
76378;BME280;65200;49.500;8.654;2023-02-15T03:04:32;101967.44;;;0.39;93.51
76378;BME280;65200;49.500;8.654;2023-02-15T03:07:03;101964.91;;;0.38;93.32
76378;BME280;65200;49.500;8.654;2023-02-15T03:09:33;101960.59;;;0.37;93.02
76378;BME280;65200;49.500;8.654;2023-02-15T03:12:07;101955.03;;;0.41;92.46
76378;BME280;65200;49.500;8.654;2023-02-15T03:14:35;101962.25;;;0.38;92.31
76378;BME280;65200;49.500;8.654;2023-02-15T03:17:03;101959.53;;;0.39;92.23
76378;BME280;65200;49.500;8.654;2023-02-15T03:19:33;101955.06;;;0.26;92.35
76378;BME280;65200;49.500;8.654;2023-02-15T03:22:04;101960.25;;;0.27;92.88
76378;BME280;65200;49.500;8.654;2023-02-15T03:24:36;101960.66;;;0.04;93.14
76378;BME280;65200;49.500;8.654;2023-02-15T03:27:06;101958.56;;;0.11;92.90
76378;BME280;65200;49.500;8.654;2023-02-15T03:29:34;101958.72;;;0.08;93.72
76378;BME280;65200;49.500;8.654;2023-02-15T03:32:05;101958.97;;;0.03;93.99
76378;BME280;65200;49.500;8.654;2023-02-15T03:34:35;101955.31;;;0.06;94.39
76378;BME280;65200;49.500;8.654;2023-02-15T03:37:06;101965.94;;;0.04;93.91
76378;BME280;65200;49.500;8.654;2023-02-15T03:39:39;101965.50;;;-0.04;93.71
76378;BME280;65200;49.500;8.654;2023-02-15T03:42:12;101974.44;;;0.09;94.44
76378;BME280;65200;49.500;8.654;2023-02-15T03:44:48;101980.66;;;0.08;93.21
76378;BME280;65200;49.500;8.654;2023-02-15T03:47:19;101983.34;;;0.07;93.08
76378;BME280;65200;49.500;8.654;2023-02-15T03:49:52;101987.03;;;0.20;92.68
76378;BME280;65200;49.500;8.654;2023-02-15T03:52:20;101979.28;;;0.17;92.43
76378;BME280;65200;49.500;8.654;2023-02-15T03:54:48;101981.50;;;0.24;92.29
76378;BME280;65200;49.500;8.654;2023-02-15T03:57:18;101977.16;;;0.23;92.97
76378;BME280;65200;49.500;8.654;2023-02-15T04:00:05;101978.78;;;0.26;92.96
76378;BME280;65200;49.500;8.654;2023-02-15T04:03:07;101983.38;;;0.22;93.65
76378;BME280;65200;49.500;8.654;2023-02-15T04:05:36;101973.78;;;0.21;92.62
76378;BME280;65200;49.500;8.654;2023-02-15T04:08:03;101964.06;;;0.22;93.07
76378;BME280;65200;49.500;8.654;2023-02-15T04:10:30;101973.34;;;0.29;93.76
76378;BME280;65200;49.500;8.654;2023-02-15T04:13:14;101966.03;;;0.18;92.57
76378;BME280;65200;49.500;8.654;2023-02-15T04:15:40;101970.28;;;0.21;94.06
76378;BME280;65200;49.500;8.654;2023-02-15T04:18:24;101966.28;;;0.29;94.01
76378;BME280;65200;49.500;8.654;2023-02-15T04:21:10;101965.16;;;0.33;93.04
76378;BME280;65200;49.500;8.654;2023-02-15T04:23:54;101967.63;;;0.36;93.35
76378;BME280;65200;49.500;8.654;2023-02-15T04:26:38;101957.53;;;0.29;93.38
76378;BME280;65200;49.500;8.654;2023-02-15T04:29:04;101957.53;;;0.29;93.37
76378;BME280;65200;49.500;8.654;2023-02-15T04:31:31;101960.94;;;0.31;93.05
76378;BME280;65200;49.500;8.654;2023-02-15T04:33:57;101955.84;;;0.28;93.89
76378;BME280;65200;49.500;8.654;2023-02-15T04:36:25;101951.47;;;0.27;93.22
76378;BME280;65200;49.500;8.654;2023-02-15T04:38:51;101953.13;;;0.29;93.37
76378;BME280;65200;49.500;8.654;2023-02-15T04:41:17;101954.97;;;0.27;93.56
76378;BME280;65200;49.500;8.654;2023-02-15T04:43:45;101947.66;;;0.32;92.94
76378;BME280;65200;49.500;8.654;2023-02-15T04:46:11;101950.22;;;0.34;92.77
76378;BME280;65200;49.500;8.654;2023-02-15T04:48:38;101951.22;;;0.31;93.06
76378;BME280;65200;49.500;8.654;2023-02-15T04:51:05;101943.06;;;0.36;91.96
76378;BME280;65200;49.500;8.654;2023-02-15T04:53:33;101934.56;;;0.31;92.02
76378;BME280;65200;49.500;8.654;2023-02-15T04:56:00;101931.47;;;0.38;91.82
76378;BME280;65200;49.500;8.654;2023-02-15T04:58:26;101932.75;;;0.31;92.26
76378;BME280;65200;49.500;8.654;2023-02-15T05:00:55;101932.34;;;0.39;91.68
76378;BME280;65200;49.500;8.654;2023-02-15T05:03:21;101938.03;;;0.47;91.81
76378;BME280;65200;49.500;8.654;2023-02-15T05:05:47;101938.22;;;0.44;91.24
76378;BME280;65200;49.500;8.654;2023-02-15T05:08:14;101928.25;;;0.33;92.05
76378;BME280;65200;49.500;8.654;2023-02-15T05:10:42;101932.75;;;0.31;92.00
76378;BME280;65200;49.500;8.654;2023-02-15T05:13:09;101933.63;;;0.32;92.29
76378;BME280;65200;49.500;8.654;2023-02-15T05:15:35;101936.25;;;0.32;91.55
76378;BME280;65200;49.500;8.654;2023-02-15T05:18:02;101940.59;;;0.33;92.03
76378;BME280;65200;49.500;8.654;2023-02-15T05:20:28;101929.13;;;0.34;91.93
76378;BME280;65200;49.500;8.654;2023-02-15T05:22:55;101937.72;;;0.37;91.13
76378;BME280;65200;49.500;8.654;2023-02-15T05:25:21;101930.91;;;0.33;91.18
76378;BME280;65200;49.500;8.654;2023-02-15T05:28:09;101929.03;;;0.35;90.88
76378;BME280;65200;49.500;8.654;2023-02-15T05:30:46;101934.03;;;0.40;90.72
76378;BME280;65200;49.500;8.654;2023-02-15T05:33:12;101920.56;;;0.44;90.56
76378;BME280;65200;49.500;8.654;2023-02-15T05:35:39;101931.72;;;0.49;89.72
76378;BME280;65200;49.500;8.654;2023-02-15T05:38:06;101933.84;;;0.43;90.41
76378;BME280;65200;49.500;8.654;2023-02-15T05:40:32;101936.16;;;0.49;91.55
76378;BME280;65200;49.500;8.654;2023-02-15T05:42:59;101938.53;;;0.38;90.74
76378;BME280;65200;49.500;8.654;2023-02-15T05:45:26;101945.13;;;0.31;90.69
76378;BME280;65200;49.500;8.654;2023-02-15T05:47:53;101940.44;;;0.36;91.09
76378;BME280;65200;49.500;8.654;2023-02-15T05:50:20;101936.75;;;0.38;90.77
76378;BME280;65200;49.500;8.654;2023-02-15T05:52:46;101933.44;;;0.50;90.34
76378;BME280;65200;49.500;8.654;2023-02-15T05:55:13;101940.13;;;0.56;90.45
76378;BME280;65200;49.500;8.654;2023-02-15T05:57:39;101935.81;;;0.55;89.92
76378;BME280;65200;49.500;8.654;2023-02-15T06:00:06;101936.66;;;0.55;89.25
76378;BME280;65200;49.500;8.654;2023-02-15T06:02:36;101939.22;;;0.57;90.02
76378;BME280;65200;49.500;8.654;2023-02-15T06:05:04;101942.75;;;0.56;88.93
76378;BME280;65200;49.500;8.654;2023-02-15T06:07:31;101941.94;;;0.55;90.07
76378;BME280;65200;49.500;8.654;2023-02-15T06:09:57;101939.13;;;0.58;90.16
76378;BME280;65200;49.500;8.654;2023-02-15T06:12:24;101942.16;;;0.51;89.77
76378;BME280;65200;49.500;8.654;2023-02-15T06:14:51;101941.84;;;0.57;90.53
76378;BME280;65200;49.500;8.654;2023-02-15T06:17:17;101948.63;;;0.61;90.56
76378;BME280;65200;49.500;8.654;2023-02-15T06:19:45;101946.94;;;0.60;90.50
76378;BME280;65200;49.500;8.654;2023-02-15T06:22:11;101941.84;;;0.57;91.17
76378;BME280;65200;49.500;8.654;2023-02-15T06:24:39;101944.56;;;0.55;90.34
76378;BME280;65200;49.500;8.654;2023-02-15T06:27:07;101943.00;;;0.67;90.29
76378;BME280;65200;49.500;8.654;2023-02-15T06:29:33;101938.06;;;0.61;90.21
76378;BME280;65200;49.500;8.654;2023-02-15T06:32:00;101949.53;;;0.75;90.67
76378;BME280;65200;49.500;8.654;2023-02-15T06:34:26;101951.34;;;0.75;91.09
76378;BME280;65200;49.500;8.654;2023-02-15T06:36:54;101958.25;;;0.62;90.11
76378;BME280;65200;49.500;8.654;2023-02-15T06:39:20;101961.22;;;0.56;90.48
76378;BME280;65200;49.500;8.654;2023-02-15T06:41:47;101966.41;;;0.57;90.96
76378;BME280;65200;49.500;8.654;2023-02-15T06:44:14;101972.38;;;0.61;90.87
76378;BME280;65200;49.500;8.654;2023-02-15T06:46:40;101971.28;;;0.65;90.36
76378;BME280;65200;49.500;8.654;2023-02-15T06:49:06;101974.22;;;0.74;91.15
76378;BME280;65200;49.500;8.654;2023-02-15T06:51:33;101970.03;;;0.86;91.02
76378;BME280;65200;49.500;8.654;2023-02-15T06:54:01;101967.81;;;0.78;91.80
76378;BME280;65200;49.500;8.654;2023-02-15T06:56:27;101975.16;;;0.73;90.70
76378;BME280;65200;49.500;8.654;2023-02-15T06:58:54;101971.84;;;0.70;92.06
76378;BME280;65200;49.500;8.654;2023-02-15T07:01:20;101964.38;;;0.92;90.89
76378;BME280;65200;49.500;8.654;2023-02-15T07:03:47;101968.47;;;0.97;90.70
76378;BME280;65200;49.500;8.654;2023-02-15T07:06:13;101971.44;;;0.91;90.83
76378;BME280;65200;49.500;8.654;2023-02-15T07:08:39;101970.53;;;0.92;90.37
76378;BME280;65200;49.500;8.654;2023-02-15T07:11:08;101971.72;;;0.87;90.49
76378;BME280;65200;49.500;8.654;2023-02-15T07:13:51;101971.34;;;0.93;89.99
76378;BME280;65200;49.500;8.654;2023-02-15T07:16:18;101972.75;;;0.84;90.19
76378;BME280;65200;49.500;8.654;2023-02-15T07:18:45;101971.50;;;0.76;90.72
76378;BME280;65200;49.500;8.654;2023-02-15T07:21:11;101968.28;;;0.71;91.51
76378;BME280;65200;49.500;8.654;2023-02-15T07:23:38;101976.09;;;0.72;91.04
76378;BME280;65200;49.500;8.654;2023-02-15T07:26:06;101975.50;;;0.83;91.12
76378;BME280;65200;49.500;8.654;2023-02-15T07:28:34;101973.25;;;0.91;90.62
76378;BME280;65200;49.500;8.654;2023-02-15T07:31:01;101971.72;;;0.87;90.44
76378;BME280;65200;49.500;8.654;2023-02-15T07:33:29;101972.25;;;0.78;90.58
76378;BME280;65200;49.500;8.654;2023-02-15T07:35:58;101974.75;;;0.95;90.22
76378;BME280;65200;49.500;8.654;2023-02-15T07:38:27;101974.25;;;1.18;90.45
76378;BME280;65200;49.500;8.654;2023-02-15T07:40:57;101970.84;;;1.16;89.88
76378;BME280;65200;49.500;8.654;2023-02-15T07:43:24;101972.00;;;1.12;90.38
76378;BME280;65200;49.500;8.654;2023-02-15T07:45:52;101977.66;;;1.20;89.13
76378;BME280;65200;49.500;8.654;2023-02-15T07:48:18;101966.91;;;1.09;89.65
76378;BME280;65200;49.500;8.654;2023-02-15T07:50:45;101960.16;;;1.03;90.21
76378;BME280;65200;49.500;8.654;2023-02-15T07:53:11;101962.00;;;1.17;90.96
76378;BME280;65200;49.500;8.654;2023-02-15T07:55:38;101958.91;;;1.24;90.87
76378;BME280;65200;49.500;8.654;2023-02-15T07:58:04;101956.16;;;1.26;90.42
76378;BME280;65200;49.500;8.654;2023-02-15T08:00:31;101959.94;;;1.36;90.64
76378;BME280;65200;49.500;8.654;2023-02-15T08:03:18;101962.41;;;1.39;90.80
76378;BME280;65200;49.500;8.654;2023-02-15T08:05:45;101954.56;;;1.52;90.86
76378;BME280;65200;49.500;8.654;2023-02-15T08:08:11;101944.88;;;1.52;90.64
76378;BME280;65200;49.500;8.654;2023-02-15T08:10:57;101943.28;;;1.50;90.83
76378;BME280;65200;49.500;8.654;2023-02-15T08:13:42;101947.88;;;1.60;90.08
76378;BME280;65200;49.500;8.654;2023-02-15T08:16:19;101948.47;;;1.51;89.68
76378;BME280;65200;49.500;8.654;2023-02-15T08:18:47;101947.41;;;1.54;89.79
76378;BME280;65200;49.500;8.654;2023-02-15T08:21:14;101953.06;;;1.48;91.02
76378;BME280;65200;49.500;8.654;2023-02-15T08:23:40;101952.59;;;1.41;91.89
76378;BME280;65200;49.500;8.654;2023-02-15T08:26:07;101950.34;;;1.49;91.34
76378;BME280;65200;49.500;8.654;2023-02-15T08:28:33;101947.69;;;1.49;90.29
76378;BME280;65200;49.500;8.654;2023-02-15T08:31:04;101949.56;;;1.47;91.41
76378;BME280;65200;49.500;8.654;2023-02-15T08:33:30;101945.63;;;1.54;91.46
76378;BME280;65200;49.500;8.654;2023-02-15T08:36:02;101944.09;;;1.50;90.20
76378;BME280;65200;49.500;8.654;2023-02-15T08:38:28;101934.66;;;1.60;90.64
76378;BME280;65200;49.500;8.654;2023-02-15T08:40:55;101935.53;;;1.61;90.27
76378;BME280;65200;49.500;8.654;2023-02-15T08:43:21;101938.19;;;1.61;90.41
76378;BME280;65200;49.500;8.654;2023-02-15T08:45:48;101938.28;;;1.59;90.57
76378;BME280;65200;49.500;8.654;2023-02-15T08:48:15;101944.94;;;1.65;90.07
76378;BME280;65200;49.500;8.654;2023-02-15T08:50:41;101932.09;;;1.73;90.45
76378;BME280;65200;49.500;8.654;2023-02-15T08:53:09;101933.63;;;1.77;89.85
76378;BME280;65200;49.500;8.654;2023-02-15T08:55:35;101918.50;;;1.93;89.43
76378;BME280;65200;49.500;8.654;2023-02-15T08:58:02;101927.50;;;1.90;90.32
76378;BME280;65200;49.500;8.654;2023-02-15T09:00:28;101930.84;;;1.92;90.69
76378;BME280;65200;49.500;8.654;2023-02-15T09:02:54;101928.22;;;1.92;90.53
76378;BME280;65200;49.500;8.654;2023-02-15T09:05:21;101914.84;;;1.81;90.99
76378;BME280;65200;49.500;8.654;2023-02-15T09:07:47;101921.44;;;1.88;90.69
76378;BME280;65200;49.500;8.654;2023-02-15T09:10:15;101917.38;;;1.83;91.09
76378;BME280;65200;49.500;8.654;2023-02-15T09:12:42;101912.75;;;1.86;91.19
76378;BME280;65200;49.500;8.654;2023-02-15T09:15:08;101909.94;;;1.75;91.67
76378;BME280;65200;49.500;8.654;2023-02-15T09:17:35;101916.63;;;1.81;91.21
76378;BME280;65200;49.500;8.654;2023-02-15T09:20:01;101910.97;;;1.73;91.02
76378;BME280;65200;49.500;8.654;2023-02-15T09:22:28;101911.34;;;1.81;90.19
76378;BME280;65200;49.500;8.654;2023-02-15T09:24:55;101910.50;;;1.80;90.44
76378;BME280;65200;49.500;8.654;2023-02-15T09:27:23;101911.69;;;1.89;90.97
76378;BME280;65200;49.500;8.654;2023-02-15T09:29:49;101910.31;;;1.83;91.23
76378;BME280;65200;49.500;8.654;2023-02-15T09:32:15;101900.84;;;1.93;91.12
76378;BME280;65200;49.500;8.654;2023-02-15T09:34:42;101909.56;;;1.67;91.08
76378;BME280;65200;49.500;8.654;2023-02-15T09:37:09;101898.03;;;1.68;90.75
76378;BME280;65200;49.500;8.654;2023-02-15T09:39:37;101898.44;;;1.62;90.69
76378;BME280;65200;49.500;8.654;2023-02-15T09:42:19;101904.66;;;1.75;90.74
76378;BME280;65200;49.500;8.654;2023-02-15T09:47:57;101902.56;;;1.66;90.95
76378;BME280;65200;49.500;8.654;2023-02-15T09:50:33;101900.78;;;1.67;90.84
76378;BME280;65200;49.500;8.654;2023-02-15T09:53:19;101905.22;;;1.66;89.73
76378;BME280;65200;49.500;8.654;2023-02-15T09:55:55;101913.81;;;1.56;90.59
76378;BME280;65200;49.500;8.654;2023-02-15T09:58:33;101910.44;;;1.54;90.69
76378;BME280;65200;49.500;8.654;2023-02-15T10:01:08;101906.56;;;1.59;90.33
76378;BME280;65200;49.500;8.654;2023-02-15T10:03:51;101909.47;;;1.69;90.95
76378;BME280;65200;49.500;8.654;2023-02-15T10:06:35;101911.81;;;1.73;90.14
76378;BME280;65200;49.500;8.654;2023-02-15T10:09:19;101907.84;;;1.80;89.79
76378;BME280;65200;49.500;8.654;2023-02-15T10:11:59;101911.81;;;1.73;89.24
76378;BME280;65200;49.500;8.654;2023-02-15T10:14:45;101910.78;;;1.90;89.50
76378;BME280;65200;49.500;8.654;2023-02-15T10:17:29;101915.88;;;1.79;88.94
76378;BME280;65200;49.500;8.654;2023-02-15T10:20:08;101913.25;;;1.79;90.15
76378;BME280;65200;49.500;8.654;2023-02-15T10:22:45;101918.03;;;1.86;89.31
76378;BME280;65200;49.500;8.654;2023-02-15T10:25:22;101918.72;;;1.62;89.82
76378;BME280;65200;49.500;8.654;2023-02-15T10:27:55;101926.00;;;1.72;89.19
76378;BME280;65200;49.500;8.654;2023-02-15T10:30:27;101924.47;;;1.68;88.96
76378;BME280;65200;49.500;8.654;2023-02-15T10:33:01;101931.28;;;1.58;89.89
76378;BME280;65200;49.500;8.654;2023-02-15T10:35:35;101939.56;;;1.80;89.04
76378;BME280;65200;49.500;8.654;2023-02-15T10:38:16;101940.25;;;1.84;88.57
76378;BME280;65200;49.500;8.654;2023-02-15T10:40:51;101932.00;;;1.88;87.87
76378;BME280;65200;49.500;8.654;2023-02-15T10:43:37;101932.97;;;1.59;89.10
76378;BME280;65200;49.500;8.654;2023-02-15T10:46:12;101933.19;;;1.56;88.72
76378;BME280;65200;49.500;8.654;2023-02-15T10:49:03;101934.47;;;1.63;88.67
76378;BME280;65200;49.500;8.654;2023-02-15T10:51:39;101932.50;;;1.53;88.55
76378;BME280;65200;49.500;8.654;2023-02-15T10:54:17;101929.19;;;1.77;87.86
76378;BME280;65200;49.500;8.654;2023-02-15T10:56:53;101930.16;;;1.62;87.58
76378;BME280;65200;49.500;8.654;2023-02-15T10:59:46;101921.84;;;1.54;88.31
76378;BME280;65200;49.500;8.654;2023-02-15T11:02:24;101934.09;;;1.83;87.64
76378;BME280;65200;49.500;8.654;2023-02-15T11:05:05;101928.31;;;1.91;86.08
76378;BME280;65200;49.500;8.654;2023-02-15T11:07:37;101925.22;;;1.84;87.45
76378;BME280;65200;49.500;8.654;2023-02-15T11:10:14;101927.69;;;1.73;86.78
76378;BME280;65200;49.500;8.654;2023-02-15T11:12:49;101915.28;;;1.88;86.72
76378;BME280;65200;49.500;8.654;2023-02-15T11:15:20;101911.53;;;1.92;86.82
76378;BME280;65200;49.500;8.654;2023-02-15T11:17:51;101908.88;;;1.92;86.60
76378;BME280;65200;49.500;8.654;2023-02-15T11:20:24;101909.59;;;1.94;86.36
76378;BME280;65200;49.500;8.654;2023-02-15T11:22:53;101900.66;;;2.23;85.91
76378;BME280;65200;49.500;8.654;2023-02-15T11:25:23;101888.19;;;2.25;85.49
76378;BME280;65200;49.500;8.654;2023-02-15T11:27:51;101883.28;;;2.45;85.51
76378;BME280;65200;49.500;8.654;2023-02-15T11:30:20;101889.72;;;2.41;85.60
76378;BME280;65200;49.500;8.654;2023-02-15T11:32:49;101871.97;;;2.43;84.77
76378;BME280;65200;49.500;8.654;2023-02-15T11:35:22;101869.19;;;2.71;84.13
76378;BME280;65200;49.500;8.654;2023-02-15T11:37:53;101868.00;;;2.75;83.91
76378;BME280;65200;49.500;8.654;2023-02-15T11:40:23;101857.19;;;2.78;84.27
76378;BME280;65200;49.500;8.654;2023-02-15T11:42:53;101866.31;;;3.00;83.38
76378;BME280;65200;49.500;8.654;2023-02-15T11:45:26;101856.69;;;3.11;82.98
76378;BME280;65200;49.500;8.654;2023-02-15T11:47:53;101857.00;;;3.19;82.45
76378;BME280;65200;49.500;8.654;2023-02-15T11:50:23;101854.47;;;3.05;82.34
76378;BME280;65200;49.500;8.654;2023-02-15T11:52:51;101855.53;;;2.90;82.79
76378;BME280;65200;49.500;8.654;2023-02-15T11:55:20;101867.50;;;3.21;82.38
76378;BME280;65200;49.500;8.654;2023-02-15T11:57:51;101854.78;;;3.13;83.10
76378;BME280;65200;49.500;8.654;2023-02-15T12:00:25;101846.59;;;3.29;81.80
76378;BME280;65200;49.500;8.654;2023-02-15T12:02:57;101849.78;;;3.34;81.83
76378;BME280;65200;49.500;8.654;2023-02-15T12:05:25;101851.56;;;3.46;81.11
76378;BME280;65200;49.500;8.654;2023-02-15T12:07:55;101840.88;;;3.22;82.49
76378;BME280;65200;49.500;8.654;2023-02-15T12:10:25;101836.41;;;3.48;82.59
76378;BME280;65200;49.500;8.654;2023-02-15T12:13:09;101831.78;;;3.26;81.48
76378;BME280;65200;49.500;8.654;2023-02-15T12:15:37;101828.59;;;3.46;81.13
76378;BME280;65200;49.500;8.654;2023-02-15T12:18:04;101830.44;;;3.57;80.76
76378;BME280;65200;49.500;8.654;2023-02-15T12:20:35;101823.81;;;3.75;80.59
76378;BME280;65200;49.500;8.654;2023-02-15T12:23:05;101823.69;;;3.53;80.42
76378;BME280;65200;49.500;8.654;2023-02-15T12:25:40;101815.94;;;3.62;81.15
76378;BME280;65200;49.500;8.654;2023-02-15T12:28:23;101822.28;;;3.60;80.57
76378;BME280;65200;49.500;8.654;2023-02-15T12:30:51;101819.69;;;3.35;81.96
76378;BME280;65200;49.500;8.654;2023-02-15T12:33:26;101819.22;;;3.53;81.30
76378;BME280;65200;49.500;8.654;2023-02-15T12:35:57;101813.44;;;3.72;81.21
76378;BME280;65200;49.500;8.654;2023-02-15T12:38:27;101818.00;;;3.70;80.53
76378;BME280;65200;49.500;8.654;2023-02-15T12:40:59;101814.72;;;3.79;80.98
76378;BME280;65200;49.500;8.654;2023-02-15T12:43:27;101802.69;;;3.86;80.02
76378;BME280;65200;49.500;8.654;2023-02-15T12:46:13;101791.44;;;3.82;79.95
76378;BME280;65200;49.500;8.654;2023-02-15T12:48:40;101803.66;;;3.85;79.75
76378;BME280;65200;49.500;8.654;2023-02-15T12:51:12;101797.78;;;3.92;79.64
76378;BME280;65200;49.500;8.654;2023-02-15T12:53:40;101794.22;;;4.04;80.65
76378;BME280;65200;49.500;8.654;2023-02-15T12:56:08;101797.53;;;3.95;80.07
76378;BME280;65200;49.500;8.654;2023-02-15T12:58:36;101787.59;;;4.10;79.00
76378;BME280;65200;49.500;8.654;2023-02-15T13:01:10;101794.97;;;4.06;79.57
76378;BME280;65200;49.500;8.654;2023-02-15T13:03:39;101793.91;;;4.20;79.35
76378;BME280;65200;49.500;8.654;2023-02-15T13:06:18;101788.19;;;4.02;80.11
76378;BME280;65200;49.500;8.654;2023-02-15T13:08:49;101780.19;;;3.91;79.94
76378;BME280;65200;49.500;8.654;2023-02-15T13:11:21;101780.34;;;4.01;79.95
76378;BME280;65200;49.500;8.654;2023-02-15T13:13:51;101775.59;;;4.28;80.20
76378;BME280;65200;49.500;8.654;2023-02-15T13:16:23;101771.66;;;4.34;77.76
76378;BME280;65200;49.500;8.654;2023-02-15T13:18:52;101770.81;;;4.33;78.62
76378;BME280;65200;49.500;8.654;2023-02-15T13:21:23;101764.63;;;4.33;77.46